Latest Weather Observations for West Wyalong

IDN60801

Issued at 5:12 pm EST Saturday 22 September 2018 (issued every 10 minutes, with the page automatically refreshed every 10 minutes)

About weather observations | Map of weather stations | Latest weather observations for NSW | Other Formats
Station Details ID: 050017 Name: WEST WYALONG AIRPORT AWS Lat: -33.94 Lon: 147.20 Height: 257.0 m
Data from the previous 72 hours. | See also: Recent months at West Wyalong
Date/Time
EST
Temp
°C
App
Temp
°C
Dew
Point
°C
Rel
Hum
%
Delta-T
°C
Wind Press
QNH
hPa
Press
MSL
hPa
Rain since
9am
mm
Dir  Spd
km/h
Gust
km/h
Spd
kts
Gust
kts
22/05:00pm 21.7 16.1 -0.3 23 9.9 SSW 19 24 10 13 1025.0 1025.0 0.0
22/04:30pm 22.2 17.8 0.1 23 10.1 SW 13 20 7 11 1024.8 1024.8 0.0
22/04:00pm 21.9 16.5 1.0 25 9.6 SW 19 26 10 14 1024.9 1024.9 0.0
22/03:30pm 21.9 17.6 1.0 25 9.7 SW 13 28 7 15 1025.2 1025.1 0.0
22/03:00pm 22.1 16.5 0.0 23 10.0 SSW 19 26 10 14 1025.5 1025.4 0.0
22/02:30pm 21.7 15.7 -1.6 21 10.3 WSW 20 28 11 15 1025.8 1025.7 0.0
22/02:00pm 21.5 16.2 -0.5 23 9.8 SW 17 24 9 13 1026.2 1026.1 0.0
22/01:30pm 21.7 16.6 0.8 25 9.6 WSW 17 26 9 14 1026.5 1026.4 0.0
22/01:00pm 20.9 15.9 1.2 27 9.0 WSW 17 28 9 15 1027.0 1027.0 0.0
22/12:30pm 20.3 14.4 -0.9 24 9.3 SW 20 32 11 17 1027.5 1027.5 0.0
22/12:00pm 20.7 15.1 1.1 27 9.0 SW 20 28 11 15 1027.7 1027.7 0.0
22/11:30am 20.4 15.0 2.3 30 8.5 W 20 28 11 15 1028.1 1028.1 0.0
22/11:00am 20.1 15.0 2.9 32 8.1 W 19 28 10 15 1028.3 1028.3 0.0
22/10:30am 19.9 14.7 2.7 32 8.1 W 19 26 10 14 1028.4 1028.4 0.0
22/10:00am 19.7 16.1 3.0 33 7.9 SW 11 20 6 11 1028.4 1028.4 0.0
22/09:30am 19.1 15.9 2.9 34 7.6 SW 9 13 5 7 1028.5 1028.5 0.0
22/09:00am 17.8 15.0 2.9 37 6.9 WSW 7 11 4 6 1028.6 1028.6 0.0
22/08:30am 16.4 14.9 3.1 41 6.2 CALM 0 7 0 4 1028.6 1028.6 0.0
22/08:00am 14.3 11.1 3.2 47 5.0 SW 9 11 5 6 1028.5 1028.5 0.0
22/07:30am 11.8 10.3 3.1 55 3.9 CALM 0 0 0 0 1028.2 1028.2 0.0
22/07:00am 8.8 7.1 1.7 61 3.0 CALM 0 0 0 0 1028.0 1028.0 0.0
22/06:30am 8.0 6.2 1.2 62 2.8 CALM 0 0 0 0 1027.6 1027.6 0.0
22/06:00am 8.1 6.3 1.0 61 2.9 CALM 0 0 0 0 1027.4 1027.4 0.0
22/05:30am 8.9 6.4 1.8 61 3.0 SSW 4 6 2 3 1027.0 1027.0 0.0
22/05:00am 8.8 5.0 1.5 60 3.0 SW 11 15 6 8 1026.8 1026.8 0.0
22/04:30am 8.8 7.0 1.0 58 3.2 CALM 0 0 0 0 1026.6 1026.6 0.0
22/04:00am 9.3 6.8 1.7 59 3.2 SW 4 7 2 4 1026.6 1026.6 0.0
22/03:30am 9.6 6.1 1.3 56 3.5 WSW 9 11 5 6 1026.6 1026.6 0.0
22/03:00am 9.7 5.9 1.6 57 3.4 WSW 11 13 6 7 1026.5 1026.4 0.0
22/02:30am 8.3 4.7 0.5 58 3.2 SW 9 11 5 6 1026.6 1026.6 0.0
22/02:00am 7.8 4.6 0.8 61 2.8 WSW 7 9 4 5 1026.9 1026.9 0.0
22/01:30am 8.2 4.9 0.2 57 3.2 WSW 7 9 4 5 1027.0 1027.0 0.0
22/01:00am 7.7 5.8 0.4 60 2.9 CALM 0 0 0 0 1026.8 1026.8 0.0
22/12:30am 7.9 5.4 -0.8 54 3.4 WSW 2 6 1 3 1026.9 1026.9 0.0
22/12:00am 8.3 4.9 -0.4 54 3.4 SW 7 7 4 4 1027.1 1027.1 0.0
 
Date/Time
EST
Temp
°C
App
Temp
°C
Dew
Point
°C
Rel
Hum
%
Delta-T
°C
Wind Press
QNH
hPa
Press
MSL
hPa
Rain since
9am
mm
Dir  Spd
km/h
Gust
km/h
Spd
kts
Gust
kts
21/11:30pm 9.1 6.0 0.3 54 3.6 W 6 7 3 4 1027.1 1027.1 0.0
21/11:00pm 9.1 5.8 0.3 54 3.6 W 7 7 4 4 1027.4 1027.4 0.0
21/10:30pm 9.6 6.5 0.0 51 3.9 W 6 7 3 4 1027.4 1027.4 0.0
21/10:00pm 9.5 6.4 0.1 52 3.8 W 6 7 3 4 1027.5 1027.5 0.0
21/09:30pm 10.1 8.1 -0.4 48 4.2 CALM 0 7 0 4 1027.4 1027.4 0.0
21/09:00pm 10.4 8.4 -0.4 47 4.4 CALM 0 0 0 0 1027.3 1027.3 0.0
21/08:30pm 10.9 9.1 0.9 50 4.2 CALM 0 0 0 0 1027.4 1027.4 0.0
21/08:00pm 11.8 9.8 -0.4 43 5.0 CALM 0 0 0 0 1027.1 1027.1 0.0
21/07:30pm 12.8 10.4 -0.4 40 5.5 W 2 6 1 3 1026.9 1026.9 0.0
21/07:00pm 14.7 11.5 -0.2 36 6.3 WSW 6 6 3 3 1026.8 1026.8 0.0
21/06:30pm 17.6 14.0 0.3 31 7.6 SW 9 11 5 6 1026.4 1026.3 0.0
21/06:00pm 19.3 15.0 0.8 29 8.3 SSW 13 17 7 9 1026.2 1026.1 0.0
21/05:30pm 20.5 15.9 1.4 28 8.8 SW 15 22 8 12 1026.0 1025.9 0.0
21/05:00pm 20.8 16.1 1.1 27 9.0 SSW 15 20 8 11 1025.8 1025.7 0.0
21/04:30pm 21.2 16.5 1.0 26 9.3 W 15 22 8 12 1025.7 1025.6 0.0
21/04:00pm 21.2 15.7 0.4 25 9.4 WSW 19 30 10 16 1025.5 1025.4 0.0
21/03:30pm 21.7 16.4 -0.3 23 9.9 WSW 17 24 9 13 1025.5 1025.4 0.0
21/03:00pm 21.2 15.5 -0.7 23 9.7 SW 19 33 10 18 1025.5 1025.4 0.0
21/02:30pm 21.5 16.7 0.1 24 9.7 W 15 24 8 13 1025.8 1025.7 0.0
21/02:00pm 21.3 17.6 -0.1 24 9.6 SW 9 15 5 8 1026.1 1026.0 0.0
21/01:30pm 20.6 16.1 -0.1 25 9.3 WSW 13 20 7 11 1026.6 1026.6 0.0
21/01:00pm 20.2 15.7 -0.4 25 9.1 SW 13 20 7 11 1026.9 1026.9 0.0
21/12:30pm 20.4 17.2 0.8 27 8.9 SSW 7 19 4 10 1027.2 1027.2 0.0
21/12:00pm 19.2 14.8 0.3 28 8.4 WSW 13 20 7 11 1027.7 1027.7 0.0
21/11:30am 18.8 14.8 0.4 29 8.2 WSW 11 20 6 11 1028.1 1028.1 0.0
21/11:00am 18.0 14.3 0.2 30 7.8 S 9 24 5 13 1028.3 1028.3 0.0
21/10:30am 17.6 13.6 0.3 31 7.6 SSW 11 20 6 11 1028.6 1028.6 0.0
21/10:00am 17.4 13.8 0.6 32 7.4 S 9 17 5 9 1028.5 1028.5 0.0
21/09:30am 16.9 14.4 -0.8 30 7.6 S 2 11 1 6 1028.6 1028.6 0.0
21/09:00am 15.6 12.2 -0.6 33 6.8 SE 7 11 4 6 1028.5 1028.5 0.0
21/08:30am 13.9 11.4 -0.9 36 6.2 SE 2 6 1 3 1028.2 1028.2 0.0
21/08:00am 13.0 10.6 -0.6 39 5.6 ESE 2 6 1 3 1028.0 1028.0 0.0
21/07:30am 9.3 7.3 -0.3 51 3.9 CALM 0 0 0 0 1027.7 1027.7 0.0
21/07:00am 5.4 3.2 -1.5 61 2.6 CALM 0 0 0 0 1027.5 1027.5 0.0
21/06:30am 2.9 0.6 -2.6 67 1.9 CALM 0 6 0 3 1027.0 1027.0 0.0
21/06:00am 2.3 -0.1 -3.4 66 1.9 CALM 0 0 0 0 1026.7 1026.7 0.0
21/05:30am 2.1 -0.2 -2.6 71 1.6 CALM 0 0 0 0 1026.4 1026.3 0.0
21/05:00am 2.5 0.2 -2.2 71 1.7 CALM 0 0 0 0 1026.0 1025.9 0.0
21/04:30am 2.7 0.4 -2.2 70 1.7 CALM 0 0 0 0 1025.7 1025.6 0.0
21/04:00am 2.6 0.1 -3.7 63 2.1 CALM 0 0 0 0 1025.5 1025.4 0.0
21/03:30am 3.1 0.7 -3.0 64 2.1 CALM 0 0 0 0 1025.4 1025.3 0.0
21/03:00am 3.8 1.4 -3.0 61 2.4 CALM 0 0 0 0 1025.5 1025.4 0.0
21/02:30am 3.9 1.4 -3.6 58 2.6 CALM 0 0 0 0 1025.7 1025.6 0.0
21/02:00am 4.6 2.2 -2.9 58 2.7 CALM 0 6 0 3 1026.0 1025.9 0.0
21/01:30am 6.0 2.6 -2.3 55 3.1 W 6 7 3 4 1026.2 1026.1 0.0
21/01:00am 6.4 2.7 -2.5 53 3.3 WSW 7 9 4 5 1026.2 1026.1 0.0
21/12:30am 6.8 2.8 -2.6 51 3.5 WSW 9 11 5 6 1026.0 1025.9 0.0
21/12:00am 6.2 1.7 -2.9 52 3.3 WSW 11 11 6 6 1025.8 1025.7 0.0
 
Date/Time
EST
Temp
°C
App
Temp
°C
Dew
Point
°C
Rel
Hum
%
Delta-T
°C
Wind Press
QNH
hPa
Press
MSL
hPa
Rain since
9am
mm
Dir  Spd
km/h
Gust
km/h
Spd
kts
Gust
kts
20/11:30pm 6.6 2.9 -2.8 51 3.5 WSW 7 9 4 5 1025.7 1025.6 0.0
20/11:00pm 8.3 4.2 -2.9 45 4.2 WSW 9 11 5 6 1025.5 1025.4 0.0
20/10:30pm 8.8 4.4 -2.5 45 4.3 WSW 11 11 6 6 1025.4 1025.3 0.0
20/10:00pm 8.7 5.0 -2.9 44 4.3 WSW 7 9 4 5 1025.4 1025.3 0.0
20/09:30pm 8.4 4.3 -2.8 45 4.2 WSW 9 9 5 5 1025.2 1025.1 0.0
20/09:00pm 8.0 4.2 -3.8 43 4.3 WSW 7 9 4 5 1024.6 1024.6 0.0
20/08:30pm 9.6 5.5 -3.0 41 4.8 WSW 9 9 5 5 1024.2 1024.2 0.0
20/08:00pm 9.8 6.2 -3.8 38 5.0 W 6 7 3 4 1023.9 1023.9 0.0
20/07:30pm 11.5 7.7 -3.4 35 5.7 WSW 7 7 4 4 1023.5 1023.5 0.0
20/07:00pm 13.0 8.8 -3.7 31 6.4 SW 9 11 5 6 1023.0 1022.9 0.0
20/06:30pm 14.9 10.0 -3.4 28 7.3 SW 13 17 7 9 1022.6 1022.5 0.0
20/06:00pm 15.9 10.6 -3.6 26 7.8 SSW 15 20 8 11 1022.2 1022.1 0.0
20/05:30pm 16.9 10.7 -3.2 25 8.2 S 20 28 11 15 1021.8 1021.7 0.0
20/05:00pm 17.6 10.6 -3.2 24 8.5 WSW 24 32 13 17 1021.4 1021.3 0.0
20/04:30pm 18.0 11.4 -3.4 23 8.8 WSW 22 30 12 16 1021.2 1021.1 0.0
20/04:00pm 18.5 11.2 -3.0 23 8.9 SW 26 39 14 21 1020.9 1020.9 0.0
20/03:30pm 18.5 11.6 -2.4 24 8.8 SW 24 33 13 18 1020.8 1020.8 0.0
20/03:00pm 18.1 11.9 -2.8 24 8.7 WSW 20 35 11 19 1020.7 1020.7 0.0
20/02:30pm 18.7 12.2 -2.8 23 9.0 WSW 22 35 12 19 1020.5 1020.5 0.0
20/02:00pm 18.0 12.3 -3.4 23 8.7 SW 17 33 9 18 1020.5 1020.5 0.0
20/01:30pm 17.4 11.2 -3.4 24 8.5 W 20 32 11 17 1020.7 1020.7 0.0
20/01:00pm 17.2 11.3 -1.9 27 8.0 W 19 30 10 16 1020.8 1020.8 0.0
20/12:30pm 16.8 11.3 -1.8 28 7.8 SW 17 35 9 19 1021.3 1021.2 0.0
20/12:00pm 16.4 10.5 -2.1 28 7.6 SW 19 32 10 17 1021.5 1021.4 0.0
20/11:30am 16.1 10.2 -2.4 28 7.6 SW 19 32 10 17 1021.7 1021.6 0.0
20/11:00am 16.5 10.4 -2.0 28 7.7 WSW 20 41 11 22 1021.7 1021.6 0.0
20/10:30am 15.6 10.0 -3.3 27 7.6 WSW 17 24 9 13 1021.7 1021.6 0.0
20/10:00am 14.8 9.2 -3.0 29 7.1 SW 17 24 9 13 1021.6 1021.5 0.0
20/09:30am 14.4 10.4 -2.5 31 6.8 SW 9 15 5 8 1021.5 1021.4 0.0
20/09:00am 13.3 9.7 -2.2 34 6.2 SSW 7 11 4 6 1021.3 1021.2 0.0
20/08:30am 11.9 8.8 -2.3 37 5.6 SW 4 9 2 5 1021.0 1021.0 0.0
20/08:00am 10.4 8.1 -2.6 40 5.0 CALM 0 0 0 0 1020.7 1020.7 0.0
20/07:30am 8.8 5.8 -2.2 46 4.2 ESE 4 7 2 4 1020.4 1020.4 0.0
20/07:00am 6.4 2.9 -2.7 52 3.3 SSE 6 7 3 4 1020.1 1020.1 0.0
20/06:30am 4.3 1.1 -3.7 56 2.8 SW 4 9 2 5 1019.7 1019.6 0.0
20/06:00am 5.5 1.1 -2.8 55 3.0 WSW 11 13 6 7 1019.3 1019.2 0.0
20/05:30am 4.9 0.1 -2.4 59 2.7 WSW 13 19 7 10 1019.1 1019.0 0.0
20/05:00am 2.6 -0.6 -3.9 62 2.2 WSW 4 11 2 6 1018.5 1018.4 0.0
20/04:30am 2.1 -0.4 -4.0 64 2.0 CALM 0 0 0 0 1018.1 1018.0 0.0
20/04:00am 2.7 0.2 -3.8 62 2.2 CALM 0 0 0 0 1017.9 1017.8 0.0
20/03:30am 2.9 0.4 -3.6 62 2.2 CALM 0 0 0 0 1017.7 1017.6 0.0
20/03:00am 3.0 0.5 -4.0 60 2.4 CALM 0 0 0 0 1017.6 1017.5 0.0
20/02:30am 3.1 0.6 -4.1 59 2.4 CALM 0 0 0 0 1017.5 1017.4 0.0
20/02:00am 3.2 0.7 -4.3 58 2.5 CALM 0 0 0 0 1017.6 1017.5 0.0
20/01:30am 3.2 0.6 -4.5 57 2.6 CALM 0 0 0 0 1017.7 1017.6 0.0
20/01:00am 3.4 0.9 -3.8 59 2.5 CALM 0 0 0 0 1017.7 1017.6 0.0
20/12:30am 3.8 0.1 -4.2 56 2.7 W 6 7 3 4 1017.8 1017.7 0.0
20/12:00am 4.8 1.2 -4.0 53 3.1 W 6 7 3 4 1018.0 1017.9 0.0
 
Date/Time
EST
Temp
°C
App
Temp
°C
Dew
Point
°C
Rel
Hum
%
Delta-T
°C
Wind Press
QNH
hPa
Press
MSL
hPa
Rain since
9am
mm
Dir  Spd
km/h
Gust
km/h
Spd
kts
Gust
kts
19/11:30pm 6.4 2.6 -3.5 49 3.6 W 7 7 4 4 1018.0 1017.9 0.0
19/11:00pm 6.8 2.7 -3.4 48 3.7 W 9 11 5 6 1017.9 1017.8 0.0
19/10:30pm 8.6 4.4 -3.6 42 4.5 SW 9 9 5 5 1017.9 1017.8 0.0
19/10:00pm 8.3 3.7 -3.8 42 4.4 SW 11 11 6 6 1017.7 1017.6 0.0
19/09:30pm 7.6 3.0 -3.9 44 4.2 WSW 11 13 6 7 1017.6 1017.5 0.0
19/09:00pm 7.2 3.3 -4.8 42 4.2 SW 7 9 4 5 1017.5 1017.4 0.0
19/08:30pm 9.5 4.9 -3.7 39 4.9 W 11 11 6 6 1017.1 1017.0 0.0
19/08:00pm 10.1 5.9 -3.9 37 5.2 W 9 11 5 6 1016.7 1016.7 0.0
19/07:30pm 11.6 7.0 -4.1 33 5.9 WSW 11 11 6 6 1016.5 1016.4 0.0
19/07:00pm 12.4 7.4 -4.2 31 6.3 SW 13 17 7 9 1016.2 1016.1 0.0
19/06:30pm 13.5 7.7 -4.2 29 6.8 SW 17 24 9 13 1015.8 1015.7 0.0
19/06:00pm 14.3 8.1 -4.4 27 7.2 SW 19 26 10 14 1015.4 1015.3 0.0
19/05:30pm 15.2 8.0 -5.2 24 7.8 SW 24 33 13 18 1015.0 1014.9 0.0

Other Formats:

Comma delimited format used in spreadsheet applications
http://www.bom.gov.au/fwo/IDN60801/IDN60801.95709.axf

JavaScript Object Notation format (JSON) in row-major order
http://www.bom.gov.au/fwo/IDN60801/IDN60801.95709.json